Time;durP1;ratioP1;P1;durP2;ratioP2;P2;SDS_P1;SDS_P2;PMS_P1;PMS_P2;Temp;Humidity;BMP_temperature;BMP_pressure;BME280_temperature;BME280_humidity;BME280_pressure;Samples;Min_cycle;Max_cycle;Signal;HPM_P1;HPM_P2
2022/04/08 00:02:12;;;;;;;6.70;1.07;;;;;;;6.69;82.15;94648.25;5073956;28;20040;-84
2022/04/08 00:04:51;;;;;;;6.57;0.83;;;;;;;6.61;85.49;94662.19;5086363;28;20052;-84
2022/04/08 00:07:18;;;;;;;6.53;1.07;;;;;;;6.57;86.12;94660.91;5040871;28;20084;-84
2022/04/08 00:09:52;;;;;;;6.73;0.97;;;;;;;6.51;87.50;94671.25;5041300;28;20046;-84
2022/04/08 00:12:19;;;;;;;7.32;1.23;;;;;;;6.48;88.17;94675.00;5062030;28;20036;-84
2022/04/08 00:14:46;;;;;;;8.77;1.23;;;;;;;6.48;87.91;94685.44;5050994;28;20385;-84
2022/04/08 00:17:12;;;;;;;8.70;1.17;;;;;;;6.44;87.87;94688.56;5088000;28;20028;-84
2022/04/08 00:19:38;;;;;;;4.17;1.37;;;;;;;6.44;87.54;94688.56;5059582;28;20482;-85
2022/04/08 00:22:13;;;;;;;10.27;1.30;;;;;;;6.40;87.55;94688.09;5059285;28;20043;-84
2022/04/08 00:24:40;;;;;;;4.87;0.77;;;;;;;6.40;86.76;94684.66;5041692;28;20051;-84
2022/04/08 00:27:05;;;;;;;5.50;1.00;;;;;;;6.38;86.48;94688.28;5059909;28;20063;-85
2022/04/08 00:29:32;;;;;;;4.23;0.83;;;;;;;6.39;86.35;94699.53;5088123;28;20040;-85
2022/04/08 00:31:58;;;;;;;4.17;1.00;;;;;;;6.36;85.22;94700.66;5084365;28;20169;-85
2022/04/08 00:34:25;;;;;;;8.07;1.27;;;;;;;6.36;84.76;94687.63;5059289;28;20551;-85
2022/04/08 00:36:53;;;;;;;5.57;1.10;;;;;;;6.26;87.40;94688.81;5070363;28;20032;-85
2022/04/08 00:39:19;;;;;;;6.37;1.10;;;;;;;6.26;88.22;94683.59;5061645;28;20027;-85
2022/04/08 00:41:45;;;;;;;7.80;1.30;;;;;;;6.23;86.42;94689.97;5058799;28;20044;-84
2022/04/08 00:44:15;;;;;;;7.27;1.47;;;;;;;6.22;86.89;94695.38;5071761;28;20027;-85
2022/04/08 00:46:47;;;;;;;3.90;0.70;;;;;;;6.24;82.87;94693.41;5071121;28;20067;-85
2022/04/08 00:49:19;;;;;;;7.83;1.47;;;;;;;6.18;85.00;94705.34;5074262;28;20036;-85
2022/04/08 00:51:49;;;;;;;5.33;0.93;;;;;;;6.18;84.19;94714.97;5087657;28;20047;-85
2022/04/08 00:55:04;;;;;;;6.63;1.47;;;;;;;6.21;84.07;94715.44;5075580;28;20047;-85
2022/04/08 00:57:39;;;;;;;4.00;0.90;;;;;;;6.23;84.84;94710.03;5057089;28;20036;-86
2022/04/08 01:00:10;;;;;;;3.63;0.93;;;;;;;6.16;87.51;94722.94;5071035;28;20046;-84
2022/04/08 01:02:37;;;;;;;5.13;1.23;;;;;;;6.12;88.89;94732.91;5052945;28;20036;-85
2022/04/08 01:05:03;;;;;;;6.40;1.30;;;;;;;6.11;88.83;94730.50;5088115;28;20456;-85
2022/04/08 01:07:31;;;;;;;7.07;1.40;;;;;;;6.09;89.89;94738.47;5055265;28;20035;-85
2022/04/08 01:10:04;;;;;;;5.53;0.80;;;;;;;6.09;90.71;94727.22;5058253;28;20028;-85
2022/04/08 01:12:30;;;;;;;5.93;0.98;;;;;;;6.12;91.11;94719.06;5052695;28;20044;-86
2022/04/08 01:15:00;;;;;;;6.00;1.10;;;;;;;6.10;92.33;94734.91;5061546;28;20040;-86
2022/04/08 01:17:39;;;;;;;7.87;0.90;;;;;;;6.08;92.20;94729.03;5073237;28;20020;-85
2022/04/08 01:20:06;;;;;;;8.10;1.20;;;;;;;6.12;92.98;94735.53;5055163;28;20096;-86
2022/04/08 01:22:33;;;;;;;6.00;0.93;;;;;;;6.08;92.91;94726.41;5052086;28;20032;-86
2022/04/08 01:25:04;;;;;;;9.40;1.93;;;;;;;6.09;93.48;94743.69;5075609;28;20423;-86
2022/04/08 01:27:40;;;;;;;6.73;1.37;;;;;;;5.98;95.87;94736.25;5068762;28;20482;-85
2022/04/08 01:30:17;;;;;;;4.80;1.00;;;;;;;6.05;95.97;94746.81;5069316;28;20035;-85
2022/04/08 01:32:44;;;;;;;7.95;1.67;;;;;;;6.04;95.90;94734.75;5053079;28;20092;-85
2022/04/08 01:35:09;;;;;;;5.40;1.80;;;;;;;6.04;95.49;94729.53;5052220;28;20127;-85
2022/04/08 01:37:35;;;;;;;6.97;1.40;;;;;;;6.09;94.16;94732.44;5056117;28;20122;-85
2022/04/08 01:40:02;;;;;;;5.87;1.03;;;;;;;6.07;92.72;94731.78;5055438;28;20032;-85
2022/04/08 01:42:28;;;;;;;8.73;1.20;;;;;;;6.02;95.20;94740.13;5065533;28;20082;-85
2022/04/08 01:44:58;;;;;;;5.77;1.53;;;;;;;6.06;93.84;94744.03;5060103;28;20052;-85
2022/04/08 01:47:25;;;;;;;6.63;1.30;;;;;;;6.10;92.50;94734.06;5065297;28;20451;-84
2022/04/08 01:49:54;;;;;;;3.23;0.70;;;;;;;6.07;94.33;94729.19;5072834;28;20039;-85
2022/04/08 01:52:21;;;;;;;4.80;1.03;;;;;;;6.08;93.77;94747.28;5052614;28;20029;-85
2022/04/08 01:54:49;;;;;;;6.40;1.30;;;;;;;6.07;95.41;94742.22;5035833;28;20068;-84
2022/04/08 01:57:17;;;;;;;8.27;1.20;;;;;;;6.02;96.57;94747.16;5042088;28;20036;-85
2022/04/08 01:59:56;;;;;;;9.83;1.97;;;;;;;5.98;96.89;94745.88;5055008;28;20512;-85
2022/04/08 02:02:30;;;;;;;9.67;1.60;;;;;;;6.01;97.51;94748.16;5074613;28;20024;-88
2022/04/08 02:04:57;;;;;;;8.17;1.43;;;;;;;6.03;97.97;94760.00;5059063;28;20028;-90
2022/04/08 02:07:28;;;;;;;6.43;1.03;;;;;;;6.06;96.00;94758.88;5063033;28;20033;-89
2022/04/08 02:09:55;;;;;;;8.33;1.53;;;;;;;6.05;97.13;94762.47;5056952;28;20076;-90
2022/04/08 02:12:37;;;;;;;5.43;1.13;;;;;;;6.01;97.55;94759.38;5060500;28;20093;-89
2022/04/08 02:15:08;;;;;;;4.63;1.20;;;;;;;5.95;98.10;94764.47;5104572;28;20062;-89
2022/04/08 02:17:51;;;;;;;5.77;1.17;;;;;;;5.90;99.73;94759.69;5070880;28;20056;-89
2022/04/08 02:20:31;;;;;;;8.53;1.57;;;;;;;5.90;99.78;94755.31;5055945;28;20039;-89
2022/04/08 02:22:58;;;;;;;9.53;1.63;;;;;;;5.97;95.49;94755.50;5060547;28;20030;-89
2022/04/08 02:25:28;;;;;;;8.30;1.73;;;;;;;5.89;97.34;94764.09;5069885;28;20517;-89
2022/04/08 02:28:02;;;;;;;10.07;1.13;;;;;;;5.87;97.28;94766.09;5069037;28;20036;-89
2022/04/08 02:30:34;;;;;;;6.40;1.40;;;;;;;5.95;93.19;94767.06;5080538;28;20039;-89
2022/04/08 02:33:18;;;;;;;6.40;1.20;;;;;;;5.87;96.93;94773.91;5072631;28;20182;-89
2022/04/08 02:35:53;;;;;;;8.87;1.40;;;;;;;5.80;96.66;94767.72;5055427;28;20028;-89
2022/04/08 02:38:25;;;;;;;9.53;1.40;;;;;;;5.76;95.01;94758.59;5052469;28;20115;-89
2022/04/08 02:40:54;;;;;;;5.87;2.00;;;;;;;5.68;96.61;94756.00;5058455;28;20032;-90
2022/04/08 02:43:26;;;;;;;5.03;1.17;;;;;;;5.73;94.84;94761.50;5060729;28;20527;-89
2022/04/08 02:45:53;;;;;;;7.97;1.27;;;;;;;5.71;95.05;94765.28;5060775;28;20039;-89
2022/04/08 02:48:20;;;;;;;13.03;1.80;;;;;;;5.67;96.15;94764.81;5041297;28;20625;-89
2022/04/08 02:50:46;;;;;;;3.60;1.00;;;;;;;5.63;96.15;94768.72;5056919;28;20119;-89
2022/04/08 02:53:20;;;;;;;9.90;1.60;;;;;;;5.61;97.66;94766.28;5072506;28;20085;-89
2022/04/08 02:55:48;;;;;;;4.30;1.10;;;;;;;5.55;98.43;94772.16;5066028;28;20093;-89
2022/04/08 02:58:20;;;;;;;7.37;1.30;;;;;;;5.53;98.66;94768.88;5054929;28;20081;-89
2022/04/08 03:00:48;;;;;;;7.80;1.10;;;;;;;5.48;99.08;94765.97;5074447;28;20131;-89
2022/04/08 03:03:24;;;;;;;9.13;1.30;;;;;;;5.46;100.00;94761.88;5060233;28;20050;-89
2022/04/08 03:06:05;;;;;;;5.30;0.90;;;;;;;5.46;100.00;94767.09;5079631;28;20036;-89
2022/04/08 03:08:30;;;;;;;4.37;1.00;;;;;;;5.42;100.00;94775.25;5060046;28;20098;-89
2022/04/08 03:10:57;;;;;;;9.20;1.67;;;;;;;5.36;100.00;94773.28;5063142;28;20891;-89
2022/04/08 03:13:23;;;;;;;7.63;1.57;;;;;;;5.36;100.00;94778.50;5057327;28;20050;-90
2022/04/08 03:15:52;;;;;;;7.03;1.83;;;;;;;5.40;100.00;94776.41;5055625;28;20035;-90
2022/04/08 03:18:26;;;;;;;15.65;4.05;;;;;;;5.34;100.00;94775.25;5080322;28;20464;-89
2022/04/08 03:20:58;;;;;;;6.30;1.63;;;;;;;5.23;100.00;94786.00;5076285;28;20036;-89
2022/04/08 03:23:26;;;;;;;7.83;1.57;;;;;;;5.21;100.00;94782.75;5059071;28;20039;-89
2022/04/08 03:25:54;;;;;;;7.40;1.30;;;;;;;5.32;100.00;94779.00;5055930;28;20047;-88
2022/04/08 03:28:26;;;;;;;8.77;1.30;;;;;;;5.28;100.00;94788.94;5057021;28;20556;-89
2022/04/08 03:30:53;;;;;;;5.03;1.20;;;;;;;5.24;100.00;94779.00;5074769;28;20085;-90
2022/04/08 03:33:28;;;;;;;5.30;1.50;;;;;;;5.27;100.00;94782.09;5058158;28;20031;-89
2022/04/08 03:35:55;;;;;;;9.30;2.17;;;;;;;5.20;100.00;94779.31;5050290;28;20124;-89
2022/04/08 03:38:23;;;;;;;11.00;2.47;;;;;;;5.28;100.00;94788.13;5058299;28;20028;-89
2022/04/08 03:40:50;;;;;;;7.17;1.43;;;;;;;5.15;100.00;94780.78;5059573;28;20032;-89
2022/04/08 03:43:23;;;;;;;8.73;3.60;;;;;;;5.23;100.00;94786.00;5059268;28;20035;-89
2022/04/08 03:45:53;;;;;;;5.63;1.42;;;;;;;5.26;100.00;94793.47;5078336;28;20127;-89
2022/04/08 03:48:24;;;;;;;5.50;1.30;;;;;;;5.28;100.00;94793.34;5075275;28;20056;-90
2022/04/08 03:50:50;;;;;;;10.10;1.80;;;;;;;5.27;100.00;94796.91;5072998;28;20131;-89
2022/04/08 03:53:16;;;;;;;8.87;1.33;;;;;;;5.27;100.00;94808.16;5054876;28;20123;-89
2022/04/08 03:55:44;;;;;;;6.23;1.33;;;;;;;5.18;100.00;94807.31;5058502;28;20016;-89
2022/04/08 03:58:16;;;;;;;5.83;1.07;;;;;;;5.23;100.00;94800.81;5039379;28;20505;-89
2022/04/08 04:00:42;;;;;;;9.77;1.20;;;;;;;5.30;100.00;94817.44;5063351;28;20038;-89
2022/04/08 04:03:26;;;;;;;7.87;1.57;;;;;;;5.27;100.00;94817.78;5057283;28;20055;-89
2022/04/08 04:05:56;;;;;;;5.57;1.17;;;;;;;5.29;98.36;94819.22;5082611;28;20036;-89
2022/04/08 04:08:26;;;;;;;10.57;1.63;;;;;;;5.26;97.61;94819.53;5080590;28;20024;-89
2022/04/08 04:10:54;;;;;;;7.30;2.10;;;;;;;5.25;96.75;94825.75;5061204;28;20046;-89
2022/04/08 04:13:26;;;;;;;6.07;1.40;;;;;;;5.28;95.57;94828.03;5052713;28;20051;-88
2022/04/08 04:15:59;;;;;;;3.83;0.80;;;;;;;5.22;97.69;94831.28;5058688;28;20043;-89
2022/04/08 04:18:30;;;;;;;10.53;1.67;;;;;;;5.18;98.18;94843.00;5059929;28;20031;-89
2022/04/08 04:21:02;;;;;;;14.10;2.00;;;;;;;5.16;98.80;94830.13;5061567;28;20036;-89
2022/04/08 04:23:36;;;;;;;10.07;1.60;;;;;;;5.11;100.00;94826.38;5061634;28;20035;-89
2022/04/08 04:26:06;;;;;;;3.70;1.00;;;;;;;5.07;100.00;94819.84;5058065;28;20060;-89
2022/04/08 04:28:56;;;;;;;7.43;2.60;;;;;;;5.09;100.00;94818.69;5057412;28;20077;-88
2022/04/08 04:31:28;;;;;;;9.30;2.30;;;;;;;5.06;100.00;94829.44;5064654;28;20057;-88
2022/04/08 04:34:16;;;;;;;7.77;2.60;;;;;;;5.09;100.00;94831.72;5058244;28;20040;-89
2022/04/08 04:36:48;;;;;;;4.97;1.03;;;;;;;5.14;100.00;94844.31;5074038;28;20047;-89
2022/04/08 04:39:20;;;;;;;12.17;1.30;;;;;;;5.16;100.00;94837.13;5073784;28;20016;-88
2022/04/08 04:41:47;;;;;;;5.33;1.10;;;;;;;5.12;100.00;94838.41;5065808;28;20039;-89
2022/04/08 04:44:31;;;;;;;7.80;1.67;;;;;;;5.19;100.00;94844.63;5050250;28;20107;-89
2022/04/08 04:46:59;;;;;;;9.30;2.00;;;;;;;5.18;100.00;94837.78;5057482;28;20506;-89
2022/04/08 04:49:46;;;;;;;7.67;1.37;;;;;;;5.16;100.00;94829.31;5070315;28;20071;-88
2022/04/08 04:52:15;;;;;;;11.00;2.70;;;;;;;5.18;100.00;94838.59;5088826;28;20035;-89
2022/04/08 04:54:50;;;;;;;7.57;1.57;;;;;;;5.17;99.85;94844.78;5093989;28;20032;-89
2022/04/08 04:57:17;;;;;;;5.60;1.20;;;;;;;5.26;97.72;94845.59;5081247;28;20032;-88
2022/04/08 04:59:56;;;;;;;7.47;1.30;;;;;;;5.29;97.71;94854.91;5088022;28;20048;-89
2022/04/08 05:02:25;;;;;;;5.80;1.07;;;;;;;5.28;97.81;94856.69;5067798;28;20044;-89
2022/04/08 05:05:00;;;;;;;6.43;1.43;;;;;;;5.26;98.20;94861.25;5057242;28;20127;-89
2022/04/08 05:07:32;;;;;;;5.53;1.70;;;;;;;5.25;97.39;94864.84;5082858;28;20079;-89
2022/04/08 05:10:03;;;;;;;5.20;1.00;;;;;;;5.27;98.44;94857.69;5061677;28;20105;-89
2022/04/08 05:12:44;;;;;;;;;;;;;;;5.27;94.94;94857.69;5059230;28;20047;-90
2022/04/08 05:15:19;;;;;;;6.53;1.20;;;;;;;5.25;95.50;94853.59;5074187;28;20913;-89
2022/04/08 05:17:51;;;;;;;7.30;1.40;;;;;;;5.30;92.11;94856.53;5075477;28;20054;-89
2022/04/08 05:20:17;;;;;;;8.23;1.30;;;;;;;5.30;93.11;94859.97;5050519;28;20090;-88
2022/04/08 05:22:48;;;;;;;7.07;1.40;;;;;;;5.32;92.39;94865.81;5063246;28;20036;-88
2022/04/08 05:25:16;;;;;;;8.53;2.17;;;;;;;5.26;92.62;94869.06;5074873;28;20099;-88
2022/04/08 05:27:45;;;;;;;5.23;1.00;;;;;;;5.28;91.52;94868.91;5054678;28;20102;-88
2022/04/08 05:30:20;;;;;;;9.57;1.80;;;;;;;5.33;88.30;94867.47;5071984;28;20036;-88
2022/04/08 05:32:47;;;;;;;9.07;1.43;;;;;;;5.38;88.74;94869.59;5063442;28;20056;-88
2022/04/08 05:35:22;;;;;;;4.37;1.00;;;;;;;5.40;88.35;94873.66;5051321;28;20051;-87
2022/04/08 05:38:04;;;;;;;6.30;1.13;;;;;;;5.39;87.45;94877.22;5058226;28;20047;-88
2022/04/08 05:40:30;;;;;;;;;;;;;;;5.39;89.43;94882.44;5074400;28;20052;-88
2022/04/08 05:42:56;;;;;;;8.17;2.10;;;;;;;5.39;89.59;94874.63;5055042;28;19916;-88
2022/04/08 05:45:22;;;;;;;13.13;3.50;;;;;;;5.34;91.70;94883.91;5055519;28;20036;-86
2022/04/08 05:47:58;;;;;;;8.57;2.10;;;;;;;5.34;91.96;94882.13;5060511;28;20024;-87
2022/04/08 05:50:34;;;;;;;14.33;4.83;;;;;;;5.37;92.37;94899.25;5092062;28;20522;-86
2022/04/08 05:53:00;;;;;;;16.90;4.40;;;;;;;5.36;94.02;94900.19;5063160;28;20032;-86
2022/04/08 05:55:40;;;;;;;5.43;1.80;;;;;;;5.29;96.02;94901.81;5057693;28;20039;-87
2022/04/08 05:58:17;;;;;;;12.53;2.07;;;;;;;5.33;94.78;94896.16;5059356;28;20028;-87
2022/04/08 06:00:46;;;;;;;8.17;1.63;;;;;;;5.40;96.33;94902.34;5043784;28;20055;-87
2022/04/08 06:03:26;;;;;;;5.77;1.20;;;;;;;5.36;95.70;94897.59;5063552;28;20044;-87
2022/04/08 06:05:58;;;;;;;7.93;1.50;;;;;;;5.39;96.83;94912.91;5063637;28;20031;-87
2022/04/08 06:08:24;;;;;;;9.37;1.80;;;;;;;5.41;97.42;94910.97;5061325;28;20101;-87
2022/04/08 06:11:16;;;;;;;7.70;1.43;;;;;;;5.40;97.26;94910.16;5064937;28;20067;-87
2022/04/08 06:13:49;;;;;;;8.40;1.73;;;;;;;5.43;99.71;94909.84;5058859;28;20060;-87
2022/04/08 06:16:17;;;;;;;8.33;1.43;;;;;;;5.40;99.47;94909.34;5070758;28;20102;-87
2022/04/08 06:18:43;;;;;;;8.40;1.67;;;;;;;5.50;100.00;94910.03;5056321;28;20029;-87
2022/04/08 06:21:09;;;;;;;11.40;2.07;;;;;;;5.71;100.00;94904.34;5060717;28;20024;-87
2022/04/08 06:23:40;;;;;;;8.07;2.00;;;;;;;5.60;99.92;94908.09;5089069;28;20036;-87
2022/04/08 06:26:11;;;;;;;4.53;1.23;;;;;;;5.70;99.77;94910.53;5074924;28;20506;-87
2022/04/08 06:28:38;;;;;;;5.73;1.17;;;;;;;5.74;100.00;94905.81;5067301;28;20066;-87
2022/04/08 06:31:07;;;;;;;8.10;1.63;;;;;;;5.76;100.00;94896.81;5056986;28;20131;-88
2022/04/08 06:33:43;;;;;;;9.50;1.53;;;;;;;5.92;100.00;94896.03;5055834;28;20032;-87
2022/04/08 06:36:22;;;;;;;9.57;1.50;;;;;;;5.90;100.00;94891.00;5091516;28;20067;-87
2022/04/08 06:38:56;;;;;;;8.87;1.60;;;;;;;6.00;100.00;94890.84;5061341;28;20036;-87
2022/04/08 06:41:22;;;;;;;6.70;1.37;;;;;;;6.05;100.00;94882.53;5055208;28;20067;-87
2022/04/08 06:43:53;;;;;;;7.33;2.03;;;;;;;6.00;100.00;94884.78;5061446;28;20043;-86
2022/04/08 06:46:21;;;;;;;7.27;1.67;;;;;;;6.00;100.00;94883.03;5067391;28;20035;-88
2022/04/08 06:48:50;;;;;;;9.93;1.40;;;;;;;5.91;100.00;94887.38;5074520;28;20036;-87
2022/04/08 06:51:19;;;;;;;4.20;1.10;;;;;;;5.95;100.00;94877.47;5026996;28;20047;-87
2022/04/08 06:53:45;;;;;;;5.50;1.13;;;;;;;5.98;100.00;94871.94;5070128;28;20032;-87
2022/04/08 06:56:23;;;;;;;11.57;1.90;;;;;;;5.96;100.00;94876.47;5071019;28;20063;-86
2022/04/08 06:58:50;;;;;;;8.43;1.40;;;;;;;5.94;100.00;94869.81;5055429;28;20028;-87
2022/04/08 07:01:16;;;;;;;8.63;1.80;;;;;;;5.91;100.00;94866.50;5053760;28;20040;-86
2022/04/08 07:03:49;;;;;;;5.60;1.67;;;;;;;5.95;100.00;94869.63;5054651;28;20036;-87
2022/04/08 07:06:16;;;;;;;;;;;;;;;6.06;100.00;94868.47;5060889;28;20031;-87
2022/04/08 07:08:41;;;;;;;7.57;1.40;;;;;;;6.08;100.00;94874.38;5061116;28;19916;-87
2022/04/08 07:11:07;;;;;;;13.33;2.03;;;;;;;6.09;100.00;94873.38;5057329;28;20036;-86
2022/04/08 07:13:41;;;;;;;8.67;1.30;;;;;;;6.01;100.00;94870.78;5062011;28;20052;-87
2022/04/08 07:16:14;;;;;;;10.70;1.90;;;;;;;6.19;100.00;94865.38;5059914;28;20032;-87
2022/04/08 07:19:10;;;;;;;4.60;1.23;;;;;;;6.34;100.00;94859.31;5069021;28;20059;-87
2022/04/08 07:22:04;;;;;;;8.50;1.53;;;;;;;6.18;100.00;94858.53;5086317;28;20047;-87
2022/04/08 07:24:31;;;;;;;7.30;1.50;;;;;;;6.11;100.00;94858.38;5056707;28;20135;-86
2022/04/08 07:26:58;;;;;;;8.90;1.53;;;;;;;6.18;100.00;94854.13;5058513;28;20032;-88
2022/04/08 07:29:43;;;;;;;8.87;1.50;;;;;;;6.20;100.00;94844.31;5060430;28;20101;-88
2022/04/08 07:32:10;;;;;;;4.13;0.90;;;;;;;6.06;100.00;94842.38;5065428;28;20124;-88
2022/04/08 07:34:39;;;;;;;6.73;1.40;;;;;;;5.90;100.00;94837.97;5059004;28;20028;-87
2022/04/08 07:37:10;;;;;;;9.53;1.70;;;;;;;5.81;100.00;94839.78;5056804;28;20028;-87
2022/04/08 07:39:43;;;;;;;7.23;1.17;;;;;;;5.82;100.00;94836.19;5055345;28;20044;-87
2022/04/08 07:42:16;;;;;;;5.90;1.23;;;;;;;5.80;100.00;94842.53;5056635;28;20065;-87
2022/04/08 07:44:46;;;;;;;6.80;1.75;;;;;;;5.99;100.00;94838.81;5057661;28;20654;-87
2022/04/08 07:47:14;;;;;;;4.00;1.77;;;;;;;5.87;100.00;94838.31;5062084;28;20034;-88
2022/04/08 07:49:42;;;;;;;5.53;0.93;;;;;;;5.86;100.00;94837.47;5059133;28;20027;-88
2022/04/08 07:52:11;;;;;;;8.30;1.70;;;;;;;5.90;100.00;94827.53;5062424;28;20180;-86
2022/04/08 07:54:37;;;;;;;5.67;1.60;;;;;;;5.81;100.00;94824.13;5055505;28;20175;-86
2022/04/08 07:57:03;;;;;;;4.70;1.30;;;;;;;5.58;100.00;94830.97;5057572;28;20035;-85
2022/04/08 07:59:32;;;;;;;6.00;1.20;;;;;;;5.52;100.00;94839.44;5061378;28;20489;-87
2022/04/08 08:02:10;;;;;;;6.20;1.40;;;;;;;5.57;100.00;94840.59;5053283;28;20089;-87
2022/04/08 08:04:36;;;;;;;4.93;1.50;;;;;;;5.50;100.00;94842.22;5038825;28;20040;-87
2022/04/08 08:07:09;;;;;;;8.97;1.47;;;;;;;5.68;100.00;94835.06;5070177;28;20063;-88
2022/04/08 08:09:35;;;;;;;6.07;1.42;;;;;;;5.75;100.00;94837.00;5051731;28;20040;-88
2022/04/08 08:12:02;;;;;;;6.17;1.17;;;;;;;5.66;100.00;94823.97;5058895;28;20494;-88
2022/04/08 08:14:31;;;;;;;4.93;1.23;;;;;;;5.65;100.00;94824.94;5056828;28;20037;-89
2022/04/08 08:17:00;;;;;;;5.27;1.10;;;;;;;5.69;100.00;94822.81;5054472;28;20028;-88
2022/04/08 08:19:28;;;;;;;4.43;0.90;;;;;;;5.64;100.00;94819.91;5053763;28;20027;-88
2022/04/08 08:21:54;;;;;;;9.90;1.10;;;;;;;5.70;100.00;94821.88;5053158;28;20029;-88
2022/04/08 08:24:20;;;;;;;3.83;1.27;;;;;;;5.59;100.00;94815.16;5053594;28;20048;-88
2022/04/08 08:26:46;;;;;;;3.23;1.30;;;;;;;5.44;100.00;94811.59;5060894;28;20470;-88
2022/04/08 08:29:12;;;;;;;8.70;1.90;;;;;;;5.44;100.00;94807.19;5057355;28;20024;-88
2022/04/08 08:31:37;;;;;;;6.60;1.40;;;;;;;5.44;100.00;94809.78;5055468;28;20032;-87
2022/04/08 08:34:03;;;;;;;5.07;1.13;;;;;;;5.40;100.00;94799.88;5054770;28;20040;-87
2022/04/08 08:36:30;;;;;;;8.10;1.50;;;;;;;5.41;100.00;94791.88;5058666;28;20032;-88
2022/04/08 08:38:55;;;;;;;8.83;1.70;;;;;;;5.44;100.00;94790.72;5056817;28;20059;-88
2022/04/08 08:41:24;;;;;;;8.17;2.17;;;;;;;5.59;100.00;94789.09;5071625;28;20063;-87
2022/04/08 08:43:54;;;;;;;6.57;1.60;;;;;;;5.78;100.00;94790.53;5072174;28;20113;-85
2022/04/08 08:46:21;;;;;;;8.73;2.13;;;;;;;5.91;100.00;94783.03;5072910;28;20038;-88
2022/04/08 08:48:50;;;;;;;6.43;2.40;;;;;;;5.84;100.00;94782.06;5053788;28;20111;-86
2022/04/08 08:51:19;;;;;;;6.30;1.30;;;;;;;5.82;100.00;94776.19;5064258;28;20040;-87
2022/04/08 08:53:46;;;;;;;10.50;2.40;;;;;;;6.16;100.00;94772.53;5046661;28;20043;-86
2022/04/08 08:56:14;;;;;;;4.67;1.40;;;;;;;6.07;100.00;94773.53;5067617;28;20025;-86
2022/04/08 08:58:41;;;;;;;3.73;1.13;;;;;;;6.11;100.00;94765.22;5067708;28;20033;-87
2022/04/08 09:01:14;;;;;;;4.30;1.20;;;;;;;6.19;100.00;94768.78;5062388;28;20038;-86
2022/04/08 09:03:41;;;;;;;5.78;1.25;;;;;;;6.06;100.00;94769.31;5060344;28;20126;-88
2022/04/08 09:06:09;;;;;;;6.53;1.27;;;;;;;6.13;100.00;94765.84;5052354;28;20028;-87
2022/04/08 09:08:42;;;;;;;6.33;2.37;;;;;;;6.27;100.00;94758.31;5051989;28;20031;-86
2022/04/08 09:11:27;;;;;;;3.80;1.20;;;;;;;6.08;100.00;94762.16;5058175;28;20488;-86
2022/04/08 09:14:01;;;;;;;2.17;0.87;;;;;;;6.14;100.00;94758.88;5069720;28;20020;-85
2022/04/08 09:16:29;;;;;;;;;;;;;;;6.22;100.00;94748.38;5058180;28;20070;-86
2022/04/08 09:18:56;;;;;;;5.87;1.13;;;;;;;6.18;100.00;94747.09;5067257;28;19912;-86
2022/04/08 09:21:32;;;;;;;4.67;1.50;;;;;;;6.24;100.00;94743.81;5056413;28;20036;-87
2022/04/08 09:24:06;;;;;;;6.60;1.63;;;;;;;6.09;100.00;94741.09;5075870;28;20041;-86
2022/04/08 09:26:37;;;;;;;2.03;0.90;;;;;;;6.01;100.00;94725.47;5059095;28;20039;-86
2022/04/08 09:29:04;;;;;;;5.13;1.30;;;;;;;5.93;100.00;94730.69;5071025;28;20028;-87
2022/04/08 09:31:32;;;;;;;3.33;1.00;;;;;;;6.01;100.00;94729.88;5070942;28;20046;-86
2022/04/08 09:33:57;;;;;;;2.90;1.03;;;;;;;5.89;100.00;94727.56;5054835;28;20043;-86
2022/04/08 09:36:30;;;;;;;3.97;1.50;;;;;;;6.00;100.00;94725.63;5069102;28;20409;-87
2022/04/08 09:38:58;;;;;;;2.92;1.20;;;;;;;5.95;100.00;94718.31;5061174;28;20033;-86
2022/04/08 09:41:43;;;;;;;3.47;1.23;;;;;;;5.97;100.00;94713.75;5064359;28;20046;-87
2022/04/08 09:44:14;;;;;;;2.63;0.70;;;;;;;5.98;100.00;94714.56;5051174;28;20036;-87
2022/04/08 09:46:40;;;;;;;2.90;0.80;;;;;;;6.10;100.00;94698.38;5060323;28;20065;-88
2022/04/08 09:49:07;;;;;;;2.83;0.80;;;;;;;6.07;100.00;94688.25;5068941;28;20031;-87
2022/04/08 09:51:39;;;;;;;7.70;3.93;;;;;;;6.06;100.00;94683.19;5055762;28;20044;-86
2022/04/08 09:54:08;;;;;;;4.97;2.30;;;;;;;6.07;100.00;94684.81;5068332;28;20048;-86
2022/04/08 09:56:36;;;;;;;2.83;1.37;;;;;;;6.06;100.00;94672.75;5055817;28;20032;-88
2022/04/08 09:59:27;;;;;;;3.23;0.83;;;;;;;6.17;100.00;94664.56;5082418;28;20047;-88
2022/04/08 10:01:58;;;;;;;4.07;1.37;;;;;;;6.02;100.00;94654.03;5056614;28;20032;-88
2022/04/08 10:04:26;;;;;;;3.70;1.20;;;;;;;5.96;100.00;94649.47;5059667;28;20032;-88
2022/04/08 10:06:59;;;;;;;5.43;1.70;;;;;;;6.22;100.00;94645.78;5049971;28;20032;-88
2022/04/08 10:09:33;;;;;;;1.95;0.77;;;;;;;6.23;100.00;94637.75;5060311;28;20036;-88
2022/04/08 10:12:31;;;;;;;2.30;0.90;;;;;;;6.08;100.00;94636.88;5061700;28;20039;-87
2022/04/08 10:15:00;;;;;;;3.60;1.10;;;;;;;5.93;100.00;94623.72;5055062;28;20071;-88
2022/04/08 10:17:30;;;;;;;2.33;0.80;;;;;;;5.96;100.00;94617.34;5064701;28;20043;-87
2022/04/08 10:20:16;;;;;;;3.57;0.57;;;;;;;5.71;100.00;94611.41;5061065;28;20020;-88
2022/04/08 10:22:43;;;;;;;3.07;0.90;;;;;;;5.70;100.00;94607.16;5055026;28;20032;-86
2022/04/08 10:25:18;;;;;;;1.50;0.90;;;;;;;5.66;100.00;94602.28;5058025;28;20566;-88
2022/04/08 10:27:45;;;;;;;1.57;0.57;;;;;;;5.77;100.00;94602.88;5054952;28;20115;-88
2022/04/08 10:30:25;;;;;;;2.13;0.80;;;;;;;5.81;100.00;94597.19;5052501;28;20039;-88
2022/04/08 10:33:02;;;;;;;2.87;1.10;;;;;;;5.69;100.00;94595.91;5055282;28;20032;-88
2022/04/08 10:35:28;;;;;;;1.80;0.70;;;;;;;5.82;100.00;94583.16;5070736;28;20042;-87
2022/04/08 10:38:03;;;;;;;1.63;0.50;;;;;;;5.69;100.00;94575.06;5062651;28;20122;-88
2022/04/08 10:40:40;;;;;;;1.97;0.60;;;;;;;5.74;100.00;94566.72;5056717;28;20037;-89
2022/04/08 10:43:10;;;;;;;1.63;0.60;;;;;;;5.87;100.00;94557.38;5058559;28;20055;-88
2022/04/08 10:46:05;;;;;;;1.83;0.70;;;;;;;5.77;100.00;94551.56;5060100;28;20035;-88
2022/04/08 10:48:33;;;;;;;2.23;0.70;;;;;;;5.59;100.00;94549.19;5025115;28;20044;-89
2022/04/08 10:51:11;;;;;;;2.50;0.50;;;;;;;5.66;100.00;94544.09;5061603;28;20055;-87
2022/04/08 10:53:42;;;;;;;2.87;1.20;;;;;;;5.70;100.00;94534.97;5079773;28;20032;-88
2022/04/08 10:56:13;;;;;;;2.07;1.07;;;;;;;5.69;100.00;94528.09;5058564;28;20036;-88
2022/04/08 10:58:59;;;;;;;1.23;0.50;;;;;;;5.67;100.00;94517.06;5068889;28;20036;-88
2022/04/08 11:01:25;;;;;;;6.67;3.07;;;;;;;5.85;100.00;94507.16;5054680;28;20036;-88
2022/04/08 11:04:05;;;;;;;2.83;1.70;;;;;;;5.93;100.00;94502.91;5063330;28;20035;-89
2022/04/08 11:06:34;;;;;;;2.43;0.60;;;;;;;5.94;100.00;94496.72;5080449;28;20047;-88
2022/04/08 11:09:05;;;;;;;0.77;0.30;;;;;;;5.78;100.00;94487.16;5068297;22;20048;-78
2022/04/08 11:11:33;;;;;;;2.53;0.40;;;;;;;5.57;100.00;94480.75;5037681;28;20043;-78
2022/04/08 11:14:00;;;;;;;1.97;0.87;;;;;;;5.69;100.00;94470.72;5068067;28;20444;-78
2022/04/08 11:16:33;;;;;;;2.03;0.30;;;;;;;5.78;100.00;94467.09;5075421;28;20121;-79
2022/04/08 11:19:00;;;;;;;10.95;5.97;;;;;;;6.13;100.00;94464.91;5056774;28;20053;-78
2022/04/08 11:21:28;;;;;;;14.00;6.63;;;;;;;6.07;100.00;94457.78;5038051;28;20116;-78
2022/04/08 11:24:02;;;;;;;17.73;6.70;;;;;;;6.23;100.00;94456.84;5024529;28;20486;-78
2022/04/08 11:26:29;;;;;;;13.00;6.03;;;;;;;6.24;100.00;94455.88;5057178;28;20111;-78
2022/04/08 11:34:11;;;;;;;17.33;8.33;;;;;;;5.79;100.00;94439.22;5054441;28;20049;-81
2022/04/08 11:36:37;;;;;;;1.40;0.60;;;;;;;5.62;100.00;94439.31;5022323;28;20047;-82
2022/04/08 11:39:06;;;;;;;1.57;0.40;;;;;;;5.95;100.00;94438.31;5020400;28;20060;-82
2022/04/08 11:41:33;;;;;;;8.73;3.57;;;;;;;5.94;100.00;94423.66;5031696;28;20108;-81
2022/04/08 11:44:01;;;;;;;1.87;0.90;;;;;;;5.64;100.00;94426.13;5025723;28;20102;-79
2022/04/08 11:46:26;;;;;;;1.37;0.60;;;;;;;5.51;100.00;94418.88;5033451;28;20106;-79
2022/04/08 11:48:52;;;;;;;1.23;0.70;;;;;;;5.54;100.00;94409.91;5031476;28;20119;-80
2022/04/08 11:51:22;;;;;;;2.60;1.07;;;;;;;5.37;100.00;94417.81;5035094;28;20032;-79
2022/04/08 11:53:51;;;;;;;1.47;0.80;;;;;;;5.54;100.00;94383.81;5051764;28;20413;-80
2022/04/08 11:56:28;;;;;;;3.93;1.07;;;;;;;5.28;100.00;94360.69;5018304;28;20126;-80
2022/04/08 11:59:00;;;;;;;2.07;1.50;;;;;;;5.34;100.00;94363.41;5022386;28;20409;-79
2022/04/08 12:01:31;;;;;;;4.33;2.13;;;;;;;5.25;100.00;94374.06;5043822;28;20091;-81